sensor_id;sensor_type;location;lat;lon;timestamp;P1;durP1;ratioP1;P2;durP2;ratioP2
55678;SDS011;41573;51.446;-2.018;2022-11-03T00:01:00;1689.60;;;551.00;;
55678;SDS011;41573;51.446;-2.018;2022-11-03T00:03:26;1999.90;;;999.90;;
55678;SDS011;41573;51.446;-2.018;2022-11-03T00:05:52;1674.47;;;649.15;;
55678;SDS011;41573;51.446;-2.018;2022-11-03T00:08:30;1164.53;;;250.75;;
55678;SDS011;41573;51.446;-2.018;2022-11-03T00:11:17;1692.10;;;494.38;;
55678;SDS011;41573;51.446;-2.018;2022-11-03T00:13:43;1134.70;;;326.02;;
55678;SDS011;41573;51.446;-2.018;2022-11-03T00:16:09;1765.30;;;676.60;;
55678;SDS011;41573;51.446;-2.018;2022-11-03T00:18:36;1455.78;;;493.33;;
55678;SDS011;41573;51.446;-2.018;2022-11-03T00:21:12;1105.93;;;312.17;;
55678;SDS011;41573;51.446;-2.018;2022-11-03T00:23:39;1670.72;;;421.90;;
55678;SDS011;41573;51.446;-2.018;2022-11-03T00:28:39;1692.57;;;406.00;;
55678;SDS011;41573;51.446;-2.018;2022-11-03T00:31:06;1245.22;;;312.85;;
55678;SDS011;41573;51.446;-2.018;2022-11-03T00:33:34;1310.63;;;477.17;;
55678;SDS011;41573;51.446;-2.018;2022-11-03T00:36:00;1282.40;;;321.48;;
55678;SDS011;41573;51.446;-2.018;2022-11-03T00:38:27;1522.80;;;590.88;;
55678;SDS011;41573;51.446;-2.018;2022-11-03T00:40:57;1593.20;;;524.60;;
55678;SDS011;41573;51.446;-2.018;2022-11-03T00:43:24;1839.10;;;655.33;;
55678;SDS011;41573;51.446;-2.018;2022-11-03T00:45:50;1734.97;;;801.60;;
55678;SDS011;41573;51.446;-2.018;2022-11-03T00:48:16;1515.47;;;436.30;;
55678;SDS011;41573;51.446;-2.018;2022-11-03T00:50:58;1618.03;;;637.03;;
55678;SDS011;41573;51.446;-2.018;2022-11-03T00:53:28;1999.90;;;501.15;;
55678;SDS011;41573;51.446;-2.018;2022-11-03T00:55:55;1570.80;;;661.70;;
55678;SDS011;41573;51.446;-2.018;2022-11-03T00:58:21;1862.38;;;832.40;;
55678;SDS011;41573;51.446;-2.018;2022-11-03T01:00:46;1521.55;;;654.38;;
55678;SDS011;41573;51.446;-2.018;2022-11-03T01:03:12;1404.97;;;475.05;;
55678;SDS011;41573;51.446;-2.018;2022-11-03T01:05:41;1537.15;;;531.42;;
55678;SDS011;41573;51.446;-2.018;2022-11-03T01:08:33;1817.75;;;851.33;;
55678;SDS011;41573;51.446;-2.018;2022-11-03T01:11:07;1607.88;;;607.95;;
55678;SDS011;41573;51.446;-2.018;2022-11-03T01:14:01;1999.90;;;999.90;;
55678;SDS011;41573;51.446;-2.018;2022-11-03T01:16:27;1854.25;;;553.00;;
55678;SDS011;41573;51.446;-2.018;2022-11-03T01:18:53;1823.07;;;832.75;;
55678;SDS011;41573;51.446;-2.018;2022-11-03T01:21:18;1832.72;;;744.90;;
55678;SDS011;41573;51.446;-2.018;2022-11-03T01:23:44;1719.75;;;482.73;;
55678;SDS011;41573;51.446;-2.018;2022-11-03T01:26:10;1690.28;;;380.48;;
55678;SDS011;41573;51.446;-2.018;2022-11-03T01:28:41;1428.10;;;428.10;;
55678;SDS011;41573;51.446;-2.018;2022-11-03T01:31:15;1757.20;;;784.95;;
55678;SDS011;41573;51.446;-2.018;2022-11-03T01:33:42;1749.30;;;691.53;;
55678;SDS011;41573;51.446;-2.018;2022-11-03T01:36:12;1666.40;;;753.50;;
55678;SDS011;41573;51.446;-2.018;2022-11-03T01:38:39;1783.13;;;825.17;;
55678;SDS011;41573;51.446;-2.018;2022-11-03T01:41:06;1404.38;;;508.17;;
55678;SDS011;41573;51.446;-2.018;2022-11-03T01:43:33;1516.15;;;691.67;;
55678;SDS011;41573;51.446;-2.018;2022-11-03T01:48:35;1999.90;;;583.45;;
55678;SDS011;41573;51.446;-2.018;2022-11-03T01:51:07;1999.90;;;999.90;;
55678;SDS011;41573;51.446;-2.018;2022-11-03T01:53:36;1999.90;;;618.28;;
55678;SDS011;41573;51.446;-2.018;2022-11-03T01:56:05;1797.57;;;826.17;;
55678;SDS011;41573;51.446;-2.018;2022-11-03T01:58:32;1999.90;;;999.90;;
55678;SDS011;41573;51.446;-2.018;2022-11-03T02:01:00;1804.20;;;366.95;;
55678;SDS011;41573;51.446;-2.018;2022-11-03T02:03:27;1611.03;;;440.77;;
55678;SDS011;41573;51.446;-2.018;2022-11-03T02:05:59;1281.22;;;498.50;;
55678;SDS011;41573;51.446;-2.018;2022-11-03T02:09:00;1578.28;;;675.10;;
55678;SDS011;41573;51.446;-2.018;2022-11-03T02:11:24;1855.57;;;789.40;;
55678;SDS011;41573;51.446;-2.018;2022-11-03T02:14:11;1999.90;;;999.90;;
55678;SDS011;41573;51.446;-2.018;2022-11-03T02:16:37;1801.00;;;827.75;;
55678;SDS011;41573;51.446;-2.018;2022-11-03T02:19:05;1999.90;;;999.90;;
55678;SDS011;41573;51.446;-2.018;2022-11-03T02:24:59;1999.90;;;999.90;;
55678;SDS011;41573;51.446;-2.018;2022-11-03T02:27:39;1999.90;;;999.90;;
55678;SDS011;41573;51.446;-2.018;2022-11-03T02:30:06;1999.90;;;999.90;;
55678;SDS011;41573;51.446;-2.018;2022-11-03T02:32:32;1651.80;;;707.88;;
55678;SDS011;41573;51.446;-2.018;2022-11-03T02:35:21;1999.90;;;999.90;;
55678;SDS011;41573;51.446;-2.018;2022-11-03T02:37:53;1999.90;;;999.90;;
55678;SDS011;41573;51.446;-2.018;2022-11-03T02:40:24;1999.90;;;999.90;;
55678;SDS011;41573;51.446;-2.018;2022-11-03T02:42:53;1673.82;;;825.40;;
55678;SDS011;41573;51.446;-2.018;2022-11-03T02:45:20;1336.85;;;595.53;;
55678;SDS011;41573;51.446;-2.018;2022-11-03T02:47:48;1999.90;;;999.90;;
55678;SDS011;41573;51.446;-2.018;2022-11-03T02:50:16;1999.90;;;999.90;;
55678;SDS011;41573;51.446;-2.018;2022-11-03T02:52:42;1999.90;;;999.90;;
55678;SDS011;41573;51.446;-2.018;2022-11-03T02:55:30;1999.90;;;999.90;;
55678;SDS011;41573;51.446;-2.018;2022-11-03T03:00:43;1144.60;;;649.05;;
55678;SDS011;41573;51.446;-2.018;2022-11-03T03:03:16;1360.95;;;706.65;;
55678;SDS011;41573;51.446;-2.018;2022-11-03T03:05:48;1999.90;;;999.90;;
55678;SDS011;41573;51.446;-2.018;2022-11-03T03:08:16;1644.38;;;815.00;;
55678;SDS011;41573;51.446;-2.018;2022-11-03T03:10:44;1999.90;;;999.90;;
55678;SDS011;41573;51.446;-2.018;2022-11-03T03:13:13;1999.90;;;999.90;;
55678;SDS011;41573;51.446;-2.018;2022-11-03T03:15:44;1999.90;;;999.90;;
55678;SDS011;41573;51.446;-2.018;2022-11-03T03:18:30;1461.43;;;834.13;;
55678;SDS011;41573;51.446;-2.018;2022-11-03T03:21:10;1846.65;;;741.10;;
55678;SDS011;41573;51.446;-2.018;2022-11-03T03:23:44;1999.90;;;999.90;;
55678;SDS011;41573;51.446;-2.018;2022-11-03T03:26:34;1999.90;;;999.90;;
55678;SDS011;41573;51.446;-2.018;2022-11-03T03:29:10;1605.40;;;821.40;;
55678;SDS011;41573;51.446;-2.018;2022-11-03T03:31:40;1499.05;;;792.35;;
55678;SDS011;41573;51.446;-2.018;2022-11-03T03:34:11;1999.90;;;999.90;;
55678;SDS011;41573;51.446;-2.018;2022-11-03T03:36:40;1257.63;;;702.92;;
55678;SDS011;41573;51.446;-2.018;2022-11-03T03:39:08;508.02;;;432.55;;
55678;SDS011;41573;51.446;-2.018;2022-11-03T03:41:36;1165.65;;;791.75;;
55678;SDS011;41573;51.446;-2.018;2022-11-03T03:44:04;1469.78;;;764.92;;
55678;SDS011;41573;51.446;-2.018;2022-11-03T03:46:37;1159.85;;;708.55;;
55678;SDS011;41573;51.446;-2.018;2022-11-03T03:49:07;1023.55;;;785.92;;
55678;SDS011;41573;51.446;-2.018;2022-11-03T03:51:33;1294.72;;;700.80;;
55678;SDS011;41573;51.446;-2.018;2022-11-03T03:53:59;1120.68;;;694.95;;
55678;SDS011;41573;51.446;-2.018;2022-11-03T03:56:26;1312.80;;;798.13;;
55678;SDS011;41573;51.446;-2.018;2022-11-03T03:59:02;1312.40;;;860.42;;
55678;SDS011;41573;51.446;-2.018;2022-11-03T04:01:27;1027.28;;;758.45;;
55678;SDS011;41573;51.446;-2.018;2022-11-03T04:03:52;959.88;;;766.97;;
55678;SDS011;41573;51.446;-2.018;2022-11-03T04:06:18;1248.95;;;853.65;;
55678;SDS011;41573;51.446;-2.018;2022-11-03T04:08:43;1217.10;;;888.35;;
55678;SDS011;41573;51.446;-2.018;2022-11-03T04:11:09;1225.13;;;787.92;;
55678;SDS011;41573;51.446;-2.018;2022-11-03T04:13:53;892.33;;;771.38;;
55678;SDS011;41573;51.446;-2.018;2022-11-03T04:16:36;833.58;;;765.95;;
55678;SDS011;41573;51.446;-2.018;2022-11-03T04:19:21;950.13;;;842.30;;
55678;SDS011;41573;51.446;-2.018;2022-11-03T04:22:06;1026.97;;;829.40;;
55678;SDS011;41573;51.446;-2.018;2022-11-03T04:24:41;1153.38;;;839.97;;
55678;SDS011;41573;51.446;-2.018;2022-11-03T04:29:42;1322.55;;;879.30;;
55678;SDS011;41573;51.446;-2.018;2022-11-03T04:32:15;1138.28;;;831.80;;
55678;SDS011;41573;51.446;-2.018;2022-11-03T04:34:41;1372.43;;;893.63;;
55678;SDS011;41573;51.446;-2.018;2022-11-03T04:37:10;1018.58;;;819.17;;
55678;SDS011;41573;51.446;-2.018;2022-11-03T04:39:36;1499.45;;;829.15;;
55678;SDS011;41573;51.446;-2.018;2022-11-03T04:42:05;1352.75;;;883.90;;
55678;SDS011;41573;51.446;-2.018;2022-11-03T04:44:42;630.38;;;580.70;;
55678;SDS011;41573;51.446;-2.018;2022-11-03T04:47:08;956.05;;;533.92;;
55678;SDS011;41573;51.446;-2.018;2022-11-03T04:49:37;1106.15;;;659.47;;
55678;SDS011;41573;51.446;-2.018;2022-11-03T04:52:04;644.47;;;562.17;;
55678;SDS011;41573;51.446;-2.018;2022-11-03T04:54:41;763.25;;;696.08;;
55678;SDS011;41573;51.446;-2.018;2022-11-03T04:57:26;404.13;;;313.25;;
55678;SDS011;41573;51.446;-2.018;2022-11-03T04:59:52;886.35;;;773.08;;
55678;SDS011;41573;51.446;-2.018;2022-11-03T05:02:18;941.60;;;828.97;;
55678;SDS011;41573;51.446;-2.018;2022-11-03T05:04:45;918.28;;;813.05;;
55678;SDS011;41573;51.446;-2.018;2022-11-03T05:09:46;796.05;;;726.53;;
55678;SDS011;41573;51.446;-2.018;2022-11-03T05:12:12;818.10;;;744.72;;
55678;SDS011;41573;51.446;-2.018;2022-11-03T05:14:37;631.50;;;574.05;;
55678;SDS011;41573;51.446;-2.018;2022-11-03T05:17:05;882.67;;;787.45;;
55678;SDS011;41573;51.446;-2.018;2022-11-03T05:19:49;849.38;;;770.13;;
55678;SDS011;41573;51.446;-2.018;2022-11-03T05:22:19;941.22;;;827.75;;
55678;SDS011;41573;51.446;-2.018;2022-11-03T05:24:46;963.72;;;857.00;;
55678;SDS011;41573;51.446;-2.018;2022-11-03T05:27:20;873.40;;;771.45;;
55678;SDS011;41573;51.446;-2.018;2022-11-03T05:29:47;1231.97;;;882.08;;
55678;SDS011;41573;51.446;-2.018;2022-11-03T05:32:15;968.00;;;850.22;;
55678;SDS011;41573;51.446;-2.018;2022-11-03T05:34:46;936.20;;;803.78;;
55678;SDS011;41573;51.446;-2.018;2022-11-03T05:37:32;962.03;;;816.20;;
55678;SDS011;41573;51.446;-2.018;2022-11-03T05:39:59;853.65;;;767.17;;
55678;SDS011;41573;51.446;-2.018;2022-11-03T05:42:38;776.40;;;717.10;;
55678;SDS011;41573;51.446;-2.018;2022-11-03T05:47:51;829.90;;;743.58;;
55678;SDS011;41573;51.446;-2.018;2022-11-03T05:50:20;879.92;;;809.33;;
55678;SDS011;41573;51.446;-2.018;2022-11-03T05:52:50;859.67;;;776.67;;
55678;SDS011;41573;51.446;-2.018;2022-11-03T05:57:55;667.00;;;614.65;;
55678;SDS011;41573;51.446;-2.018;2022-11-03T06:00:27;636.60;;;587.80;;
55678;SDS011;41573;51.446;-2.018;2022-11-03T06:02:55;740.65;;;687.22;;
55678;SDS011;41573;51.446;-2.018;2022-11-03T06:05:22;875.13;;;807.70;;
55678;SDS011;41573;51.446;-2.018;2022-11-03T06:07:49;841.90;;;773.30;;
55678;SDS011;41573;51.446;-2.018;2022-11-03T06:10:33;929.70;;;848.42;;
55678;SDS011;41573;51.446;-2.018;2022-11-03T06:13:06;843.92;;;775.95;;
55678;SDS011;41573;51.446;-2.018;2022-11-03T06:15:37;766.78;;;708.22;;
55678;SDS011;41573;51.446;-2.018;2022-11-03T06:23:40;671.17;;;624.30;;
55678;SDS011;41573;51.446;-2.018;2022-11-03T06:26:15;779.70;;;720.80;;
55678;SDS011;41573;51.446;-2.018;2022-11-03T06:28:44;611.80;;;570.70;;
55678;SDS011;41573;51.446;-2.018;2022-11-03T06:31:33;718.60;;;665.40;;
55678;SDS011;41573;51.446;-2.018;2022-11-03T06:33:57;652.70;;;605.20;;
55678;SDS011;41573;51.446;-2.018;2022-11-03T06:36:24;685.35;;;635.60;;
55678;SDS011;41573;51.446;-2.018;2022-11-03T06:38:53;651.13;;;601.97;;
55678;SDS011;41573;51.446;-2.018;2022-11-03T06:41:24;682.03;;;631.83;;
55678;SDS011;41573;51.446;-2.018;2022-11-03T06:43:51;569.50;;;526.22;;
55678;SDS011;41573;51.446;-2.018;2022-11-03T06:46:18;608.63;;;563.03;;
55678;SDS011;41573;51.446;-2.018;2022-11-03T06:48:46;626.00;;;580.27;;
55678;SDS011;41573;51.446;-2.018;2022-11-03T06:51:15;588.33;;;546.03;;
55678;SDS011;41573;51.446;-2.018;2022-11-03T06:53:44;625.38;;;579.45;;
55678;SDS011;41573;51.446;-2.018;2022-11-03T06:56:11;699.70;;;645.97;;
55678;SDS011;41573;51.446;-2.018;2022-11-03T06:58:43;697.60;;;649.40;;
55678;SDS011;41573;51.446;-2.018;2022-11-03T07:01:11;675.47;;;627.17;;
55678;SDS011;41573;51.446;-2.018;2022-11-03T07:03:38;697.08;;;646.10;;
55678;SDS011;41573;51.446;-2.018;2022-11-03T07:08:42;770.60;;;713.80;;
55678;SDS011;41573;51.446;-2.018;2022-11-03T07:13:49;853.95;;;772.35;;
55678;SDS011;41573;51.446;-2.018;2022-11-03T07:16:34;1039.80;;;927.13;;
55678;SDS011;41573;51.446;-2.018;2022-11-03T07:19:10;851.78;;;779.92;;
55678;SDS011;41573;51.446;-2.018;2022-11-03T07:24:30;921.15;;;838.03;;
55678;SDS011;41573;51.446;-2.018;2022-11-03T07:30:08;1021.17;;;867.42;;
55678;SDS011;41573;51.446;-2.018;2022-11-03T07:32:41;842.35;;;768.67;;
55678;SDS011;41573;51.446;-2.018;2022-11-03T07:38:08;881.40;;;804.10;;
55678;SDS011;41573;51.446;-2.018;2022-11-03T07:40:37;942.30;;;852.92;;
55678;SDS011;41573;51.446;-2.018;2022-11-03T07:45:56;941.45;;;856.70;;
55678;SDS011;41573;51.446;-2.018;2022-11-03T07:51:43;1005.10;;;900.60;;
55678;SDS011;41573;51.446;-2.018;2022-11-03T07:53:54;955.05;;;857.63;;
55678;SDS011;41573;51.446;-2.018;2022-11-03T07:56:27;1044.07;;;936.38;;
55678;SDS011;41573;51.446;-2.018;2022-11-03T07:58:58;1024.10;;;913.47;;
55678;SDS011;41573;51.446;-2.018;2022-11-03T08:01:27;1035.55;;;931.20;;
55678;SDS011;41573;51.446;-2.018;2022-11-03T08:04:04;818.72;;;755.90;;
55678;SDS011;41573;51.446;-2.018;2022-11-03T08:06:32;1013.80;;;911.15;;
55678;SDS011;41573;51.446;-2.018;2022-11-03T08:08:57;1032.88;;;926.58;;
55678;SDS011;41573;51.446;-2.018;2022-11-03T08:11:23;1126.40;;;957.33;;
55678;SDS011;41573;51.446;-2.018;2022-11-03T08:13:49;952.40;;;860.55;;
55678;SDS011;41573;51.446;-2.018;2022-11-03T08:16:15;918.05;;;824.00;;
55678;SDS011;41573;51.446;-2.018;2022-11-03T08:18:41;942.92;;;854.78;;
55678;SDS011;41573;51.446;-2.018;2022-11-03T08:21:07;939.53;;;837.53;;
55678;SDS011;41573;51.446;-2.018;2022-11-03T08:23:32;1025.72;;;918.60;;
55678;SDS011;41573;51.446;-2.018;2022-11-03T08:25:57;864.40;;;778.83;;
55678;SDS011;41573;51.446;-2.018;2022-11-03T08:28:23;1123.78;;;951.50;;
55678;SDS011;41573;51.446;-2.018;2022-11-03T08:30:48;1034.75;;;920.30;;
55678;SDS011;41573;51.446;-2.018;2022-11-03T08:33:14;1068.15;;;912.30;;
55678;SDS011;41573;51.446;-2.018;2022-11-03T08:35:39;1184.65;;;953.22;;
55678;SDS011;41573;51.446;-2.018;2022-11-03T08:38:05;1291.13;;;992.13;;
55678;SDS011;41573;51.446;-2.018;2022-11-03T08:40:30;1008.78;;;834.47;;
55678;SDS011;41573;51.446;-2.018;2022-11-03T08:42:56;1292.70;;;995.55;;
55678;SDS011;41573;51.446;-2.018;2022-11-03T08:45:21;1087.93;;;970.05;;
55678;SDS011;41573;51.446;-2.018;2022-11-03T08:47:47;1168.05;;;993.63;;
55678;SDS011;41573;51.446;-2.018;2022-11-03T08:50:12;886.72;;;780.10;;
55678;SDS011;41573;51.446;-2.018;2022-11-03T08:52:38;932.67;;;832.78;;
55678;SDS011;41573;51.446;-2.018;2022-11-03T08:55:03;1227.40;;;994.33;;
55678;SDS011;41573;51.446;-2.018;2022-11-03T08:57:29;538.40;;;486.73;;
55678;SDS011;41573;51.446;-2.018;2022-11-03T08:59:55;945.28;;;842.42;;
55678;SDS011;41573;51.446;-2.018;2022-11-03T09:02:20;1204.18;;;979.80;;
55678;SDS011;41573;51.446;-2.018;2022-11-03T09:04:47;1541.07;;;998.53;;
55678;SDS011;41573;51.446;-2.018;2022-11-03T09:07:12;1325.63;;;985.63;;
55678;SDS011;41573;51.446;-2.018;2022-11-03T09:09:38;1327.85;;;941.30;;
55678;SDS011;41573;51.446;-2.018;2022-11-03T09:12:04;1439.22;;;911.08;;
55678;SDS011;41573;51.446;-2.018;2022-11-03T09:14:29;896.63;;;778.25;;
55678;SDS011;41573;51.446;-2.018;2022-11-03T09:16:54;1467.32;;;999.90;;
55678;SDS011;41573;51.446;-2.018;2022-11-03T09:19:20;992.13;;;865.92;;
55678;SDS011;41573;51.446;-2.018;2022-11-03T09:21:45;1002.30;;;900.53;;
55678;SDS011;41573;51.446;-2.018;2022-11-03T09:24:16;984.67;;;869.67;;
55678;SDS011;41573;51.446;-2.018;2022-11-03T09:26:41;774.95;;;704.30;;
55678;SDS011;41573;51.446;-2.018;2022-11-03T09:29:06;1270.38;;;931.88;;
55678;SDS011;41573;51.446;-2.018;2022-11-03T09:31:32;1237.20;;;867.95;;
55678;SDS011;41573;51.446;-2.018;2022-11-03T09:33:57;963.58;;;849.45;;
55678;SDS011;41573;51.446;-2.018;2022-11-03T09:36:22;991.25;;;893.00;;
55678;SDS011;41573;51.446;-2.018;2022-11-03T09:38:48;1084.97;;;932.17;;
55678;SDS011;41573;51.446;-2.018;2022-11-03T09:41:13;1035.97;;;914.50;;
55678;SDS011;41573;51.446;-2.018;2022-11-03T09:43:44;1063.20;;;919.70;;
55678;SDS011;41573;51.446;-2.018;2022-11-03T09:46:11;1121.70;;;922.13;;
55678;SDS011;41573;51.446;-2.018;2022-11-03T09:48:37;1350.18;;;972.95;;
55678;SDS011;41573;51.446;-2.018;2022-11-03T09:51:03;1330.18;;;977.60;;
55678;SDS011;41573;51.446;-2.018;2022-11-03T09:53:29;1399.82;;;974.67;;
55678;SDS011;41573;51.446;-2.018;2022-11-03T09:55:55;1578.80;;;968.33;;
55678;SDS011;41573;51.446;-2.018;2022-11-03T09:58:20;1316.63;;;980.00;;
55678;SDS011;41573;51.446;-2.018;2022-11-03T10:00:46;1708.75;;;998.65;;
55678;SDS011;41573;51.446;-2.018;2022-11-03T10:03:12;1866.75;;;999.90;;
55678;SDS011;41573;51.446;-2.018;2022-11-03T10:05:44;1758.40;;;998.15;;
55678;SDS011;41573;51.446;-2.018;2022-11-03T10:08:32;1847.45;;;999.90;;
55678;SDS011;41573;51.446;-2.018;2022-11-03T10:10:58;1826.40;;;999.90;;
55678;SDS011;41573;51.446;-2.018;2022-11-03T10:15:52;1888.22;;;999.90;;
55678;SDS011;41573;51.446;-2.018;2022-11-03T10:18:18;1629.75;;;996.25;;
55678;SDS011;41573;51.446;-2.018;2022-11-03T10:20:44;1478.82;;;991.42;;
55678;SDS011;41573;51.446;-2.018;2022-11-03T10:23:09;1785.00;;;999.90;;
55678;SDS011;41573;51.446;-2.018;2022-11-03T10:25:36;1833.95;;;998.42;;
55678;SDS011;41573;51.446;-2.018;2022-11-03T10:31:05;1980.25;;;999.90;;
55678;SDS011;41573;51.446;-2.018;2022-11-03T10:33:34;1961.30;;;999.90;;
55678;SDS011;41573;51.446;-2.018;2022-11-03T10:38:39;1865.65;;;999.90;;
55678;SDS011;41573;51.446;-2.018;2022-11-03T10:43:39;1999.90;;;999.90;;
55678;SDS011;41573;51.446;-2.018;2022-11-03T10:46:09;1999.90;;;996.33;;
55678;SDS011;41573;51.446;-2.018;2022-11-03T10:48:38;1817.82;;;999.90;;
55678;SDS011;41573;51.446;-2.018;2022-11-03T10:51:03;1999.55;;;996.47;;
55678;SDS011;41573;51.446;-2.018;2022-11-03T10:53:29;1948.05;;;987.15;;
55678;SDS011;41573;51.446;-2.018;2022-11-03T10:55:55;1809.15;;;986.88;;
55678;SDS011;41573;51.446;-2.018;2022-11-03T10:58:21;1992.95;;;998.80;;
55678;SDS011;41573;51.446;-2.018;2022-11-03T11:00:47;1744.50;;;999.75;;
55678;SDS011;41573;51.446;-2.018;2022-11-03T11:03:13;1740.13;;;959.65;;
55678;SDS011;41573;51.446;-2.018;2022-11-03T11:05:44;1731.35;;;998.90;;
55678;SDS011;41573;51.446;-2.018;2022-11-03T11:08:12;1562.28;;;915.75;;
55678;SDS011;41573;51.446;-2.018;2022-11-03T11:10:42;1999.90;;;999.90;;
55678;SDS011;41573;51.446;-2.018;2022-11-03T11:15:49;1322.25;;;966.15;;
55678;SDS011;41573;51.446;-2.018;2022-11-03T11:28:38;863.70;;;790.83;;
55678;SDS011;41573;51.446;-2.018;2022-11-03T11:34:38;756.33;;;692.72;;
55678;SDS011;41573;51.446;-2.018;2022-11-03T11:36:45;669.78;;;613.47;;
55678;SDS011;41573;51.446;-2.018;2022-11-03T11:42:16;674.80;;;624.20;;
55678;SDS011;41573;51.446;-2.018;2022-11-03T11:52:43;765.40;;;703.08;;
55678;SDS011;41573;51.446;-2.018;2022-11-03T11:58:02;494.05;;;460.38;;
55678;SDS011;41573;51.446;-2.018;2022-11-03T12:00:30;200.93;;;186.15;;
55678;SDS011;41573;51.446;-2.018;2022-11-03T12:02:59;360.85;;;335.92;;
55678;SDS011;41573;51.446;-2.018;2022-11-03T12:05:28;302.35;;;283.67;;
55678;SDS011;41573;51.446;-2.018;2022-11-03T12:07:56;776.35;;;712.72;;
55678;SDS011;41573;51.446;-2.018;2022-11-03T12:10:22;442.02;;;412.20;;
55678;SDS011;41573;51.446;-2.018;2022-11-03T12:12:57;860.90;;;729.20;;
55678;SDS011;41573;51.446;-2.018;2022-11-03T12:20:57;673.15;;;616.45;;
55678;SDS011;41573;51.446;-2.018;2022-11-03T12:23:38;933.05;;;837.35;;
55678;SDS011;41573;51.446;-2.018;2022-11-03T12:26:18;962.97;;;859.08;;
55678;SDS011;41573;51.446;-2.018;2022-11-03T12:29:05;238.95;;;217.25;;
55678;SDS011;41573;51.446;-2.018;2022-11-03T12:31:30;854.33;;;767.25;;
55678;SDS011;41573;51.446;-2.018;2022-11-03T12:33:55;1341.25;;;975.42;;
55678;SDS011;41573;51.446;-2.018;2022-11-03T12:36:21;1000.95;;;889.75;;
55678;SDS011;41573;51.446;-2.018;2022-11-03T12:38:46;1035.80;;;927.78;;
55678;SDS011;41573;51.446;-2.018;2022-11-03T12:41:12;819.05;;;742.10;;
55678;SDS011;41573;51.446;-2.018;2022-11-03T12:43:49;677.65;;;622.83;;
55678;SDS011;41573;51.446;-2.018;2022-11-03T12:46:16;736.42;;;608.75;;
55678;SDS011;41573;51.446;-2.018;2022-11-03T12:48:43;706.53;;;648.15;;
55678;SDS011;41573;51.446;-2.018;2022-11-03T12:51:14;915.53;;;813.38;;
55678;SDS011;41573;51.446;-2.018;2022-11-03T12:53:41;1041.68;;;906.15;;
55678;SDS011;41573;51.446;-2.018;2022-11-03T12:56:07;1069.50;;;937.03;;
55678;SDS011;41573;51.446;-2.018;2022-11-03T12:58:33;1249.68;;;983.13;;
55678;SDS011;41573;51.446;-2.018;2022-11-03T13:00:59;1264.32;;;988.95;;
55678;SDS011;41573;51.446;-2.018;2022-11-03T13:03:25;1406.45;;;966.70;;
55678;SDS011;41573;51.446;-2.018;2022-11-03T13:05:51;1457.57;;;986.92;;
55678;SDS011;41573;51.446;-2.018;2022-11-03T13:08:16;655.38;;;594.47;;
55678;SDS011;41573;51.446;-2.018;2022-11-03T13:10:42;1165.30;;;879.58;;
55678;SDS011;41573;51.446;-2.018;2022-11-03T13:13:07;1067.85;;;903.63;;
55678;SDS011;41573;51.446;-2.018;2022-11-03T13:15:32;773.60;;;702.08;;
55678;SDS011;41573;51.446;-2.018;2022-11-03T13:17:58;1030.60;;;832.55;;
55678;SDS011;41573;51.446;-2.018;2022-11-03T13:20:23;918.17;;;828.00;;
55678;SDS011;41573;51.446;-2.018;2022-11-03T13:22:49;696.33;;;633.35;;
55678;SDS011;41573;51.446;-2.018;2022-11-03T13:25:15;1031.40;;;878.45;;
55678;SDS011;41573;51.446;-2.018;2022-11-03T13:27:41;1030.35;;;797.03;;
55678;SDS011;41573;51.446;-2.018;2022-11-03T13:30:07;406.23;;;368.48;;
55678;SDS011;41573;51.446;-2.018;2022-11-03T13:32:33;884.58;;;788.47;;
55678;SDS011;41573;51.446;-2.018;2022-11-03T13:34:58;710.05;;;648.22;;
55678;SDS011;41573;51.446;-2.018;2022-11-03T13:37:24;843.42;;;762.63;;
55678;SDS011;41573;51.446;-2.018;2022-11-03T13:39:49;439.13;;;403.35;;
55678;SDS011;41573;51.446;-2.018;2022-11-03T13:42:15;806.20;;;705.05;;
55678;SDS011;41573;51.446;-2.018;2022-11-03T13:44:40;742.45;;;678.55;;
55678;SDS011;41573;51.446;-2.018;2022-11-03T13:47:05;857.83;;;737.42;;
55678;SDS011;41573;51.446;-2.018;2022-11-03T13:49:31;820.97;;;727.63;;
55678;SDS011;41573;51.446;-2.018;2022-11-03T13:51:56;958.20;;;843.97;;
55678;SDS011;41573;51.446;-2.018;2022-11-03T13:54:22;626.78;;;540.70;;
55678;SDS011;41573;51.446;-2.018;2022-11-03T13:56:47;1145.32;;;846.78;;
55678;SDS011;41573;51.446;-2.018;2022-11-03T13:59:13;1365.68;;;934.25;;
55678;SDS011;41573;51.446;-2.018;2022-11-03T14:01:38;1131.40;;;868.28;;
55678;SDS011;41573;51.446;-2.018;2022-11-03T14:04:03;1127.18;;;804.17;;
55678;SDS011;41573;51.446;-2.018;2022-11-03T14:06:29;1430.75;;;989.53;;
55678;SDS011;41573;51.446;-2.018;2022-11-03T14:08:55;946.75;;;766.88;;
55678;SDS011;41573;51.446;-2.018;2022-11-03T14:11:20;787.88;;;692.85;;
55678;SDS011;41573;51.446;-2.018;2022-11-03T14:14:04;438.92;;;400.27;;
55678;SDS011;41573;51.446;-2.018;2022-11-03T14:16:29;873.63;;;741.03;;
55678;SDS011;41573;51.446;-2.018;2022-11-03T14:18:54;1301.28;;;950.03;;
55678;SDS011;41573;51.446;-2.018;2022-11-03T14:21:20;426.38;;;388.13;;
55678;SDS011;41573;51.446;-2.018;2022-11-03T14:23:45;639.92;;;550.15;;
55678;SDS011;41573;51.446;-2.018;2022-11-03T14:26:11;333.75;;;309.17;;
55678;SDS011;41573;51.446;-2.018;2022-11-03T14:28:36;686.72;;;578.67;;
55678;SDS011;41573;51.446;-2.018;2022-11-03T14:31:01;610.25;;;557.20;;
55678;SDS011;41573;51.446;-2.018;2022-11-03T14:33:29;823.78;;;631.00;;
55678;SDS011;41573;51.446;-2.018;2022-11-03T14:35:54;744.45;;;648.03;;
55678;SDS011;41573;51.446;-2.018;2022-11-03T14:38:20;612.80;;;559.13;;
55678;SDS011;41573;51.446;-2.018;2022-11-03T14:40:45;1731.60;;;831.63;;
55678;SDS011;41573;51.446;-2.018;2022-11-03T14:43:29;768.00;;;641.33;;
55678;SDS011;41573;51.446;-2.018;2022-11-03T14:45:55;752.97;;;595.50;;
55678;SDS011;41573;51.446;-2.018;2022-11-03T14:48:20;702.25;;;626.20;;
55678;SDS011;41573;51.446;-2.018;2022-11-03T14:50:45;231.23;;;213.65;;
55678;SDS011;41573;51.446;-2.018;2022-11-03T14:53:11;1528.20;;;927.08;;
55678;SDS011;41573;51.446;-2.018;2022-11-03T14:55:36;1071.85;;;914.92;;
55678;SDS011;41573;51.446;-2.018;2022-11-03T14:58:02;981.40;;;884.47;;
55678;SDS011;41573;51.446;-2.018;2022-11-03T15:00:27;792.97;;;727.83;;
55678;SDS011;41573;51.446;-2.018;2022-11-03T15:02:52;753.65;;;698.05;;
55678;SDS011;41573;51.446;-2.018;2022-11-03T15:05:18;663.70;;;604.60;;
55678;SDS011;41573;51.446;-2.018;2022-11-03T15:08:02;647.25;;;598.03;;
55678;SDS011;41573;51.446;-2.018;2022-11-03T15:10:27;822.67;;;754.85;;
55678;SDS011;41573;51.446;-2.018;2022-11-03T15:12:52;553.65;;;512.65;;
55678;SDS011;41573;51.446;-2.018;2022-11-03T15:15:18;797.75;;;729.03;;
55678;SDS011;41573;51.446;-2.018;2022-11-03T15:17:43;895.70;;;819.55;;
55678;SDS011;41573;51.446;-2.018;2022-11-03T15:20:09;977.17;;;872.83;;
55678;SDS011;41573;51.446;-2.018;2022-11-03T15:22:34;929.60;;;834.13;;